Time,TemperatureF,DewpointF,PressureIn,WindDirection,WindDirectionDegrees,WindSpeedMPH,WindSpeedGustMPH,Humidity,HourlyPrecipIn,Conditions,Clouds,dailyrainin,SoftwareType,DateUTC
2013-01-28 00:03:00,15.4,6.4,29.92,North,0,0.0,-999.0,66,0.00,,,-99.99,,2013-01-28 09:03:00,
2013-01-28 00:09:00,15.5,7.0,29.92,North,0,0.0,-999.0,68,0.00,,,-99.99,,2013-01-28 09:09:00,
2013-01-28 00:14:00,15.7,6.6,29.92,North,0,0.0,-999.0,66,0.00,,,-99.99,,2013-01-28 09:14:00,
2013-01-28 00:20:00,15.2,6.0,29.92,North,0,0.0,-999.0,66,0.00,,,-99.99,,2013-01-28 09:20:00,
2013-01-28 00:25:00,15.6,6.8,29.92,North,0,0.0,-999.0,67,0.00,,,-99.99,,2013-01-28 09:25:00,
2013-01-28 00:30:00,15.3,5.9,29.92,North,0,0.0,-999.0,65,0.00,,,-99.99,,2013-01-28 09:30:00,
2013-01-28 00:35:00,15.1,6.5,29.92,North,0,0.0,-999.0,68,0.00,,,-99.99,,2013-01-28 09:35:00,
2013-01-28 00:40:00,14.9,6.0,29.92,North,0,0.0,-999.0,67,0.00,,,-99.99,,2013-01-28 09:40:00,
2013-01-28 00:46:00,14.8,5.0,29.92,North,0,0.0,-999.0,64,0.00,,,-99.99,,2013-01-28 09:46:00,
2013-01-28 00:51:00,15.0,6.4,29.92,North,0,0.0,-999.0,68,0.00,,,-99.99,,2013-01-28 09:51:00,
2013-01-28 00:56:00,15.3,6.9,29.92,North,0,0.0,-999.0,68,0.00,,,-99.99,,2013-01-28 09:56:00,
2013-01-28 01:01:00,15.0,6.6,29.92,North,0,0.0,-999.0,68,0.00,,,-99.99,,2013-01-28 10:01:00,
2013-01-28 01:06:00,15.3,5.6,29.92,North,0,0.0,-999.0,64,0.00,,,-99.99,,2013-01-28 10:06:00,
2013-01-28 01:11:00,15.4,6.0,29.92,North,0,0.0,-999.0,65,0.00,,,-99.99,,2013-01-28 10:11:00,
2013-01-28 01:16:00,15.3,5.6,29.92,North,0,0.0,-999.0,64,0.00,,,-99.99,,2013-01-28 10:16:00,
2013-01-28 01:21:00,15.4,6.4,29.92,North,0,0.0,-999.0,66,0.00,,,-99.99,,2013-01-28 10:21:00,
2013-01-28 01:26:00,15.4,6.4,29.92,North,0,0.0,-999.0,67,0.00,,,-99.99,,2013-01-28 10:26:00,
2013-01-28 01:31:00,15.6,7.0,29.92,North,0,0.0,-999.0,68,0.00,,,-99.99,,2013-01-28 10:31:00,
2013-01-28 01:36:00,15.3,5.4,29.92,North,0,0.0,-999.0,64,0.00,,,-99.99,,2013-01-28 10:36:00,
2013-01-28 01:41:00,15.6,5.5,29.92,North,0,0.0,-999.0,63,0.00,,,-99.99,,2013-01-28 10:41:00,
2013-01-28 01:46:00,15.6,5.7,29.92,North,0,0.0,-999.0,64,0.00,,,-99.99,,2013-01-28 10:46:00,
2013-01-28 01:51:00,15.6,5.6,29.92,North,0,0.0,-999.0,64,0.00,,,-99.99,,2013-01-28 10:51:00,
2013-01-28 01:56:00,15.6,4.4,29.92,North,0,0.0,-999.0,60,0.00,,,-99.99,,2013-01-28 10:56:00,
2013-01-28 02:01:00,15.3,4.4,29.91,North,0,0.0,-999.0,61,0.00,,,-99.99,,2013-01-28 11:01:00,
2013-01-28 02:06:00,15.6,4.9,29.91,North,0,0.0,-999.0,62,0.00,,,-99.99,,2013-01-28 11:06:00,
2013-01-28 02:11:00,15.2,3.8,29.91,North,0,0.0,-999.0,59,0.00,,,-99.99,,2013-01-28 11:11:00,
2013-01-28 02:16:00,15.3,4.9,29.91,North,0,0.0,-999.0,62,0.00,,,-99.99,,2013-01-28 11:16:00,
2013-01-28 02:21:00,15.4,4.3,29.91,North,0,0.0,-999.0,60,0.00,,,-99.99,,2013-01-28 11:21:00,
2013-01-28 02:26:00,15.4,4.7,29.91,North,0,0.0,-999.0,62,0.00,,,-99.99,,2013-01-28 11:26:00,
2013-01-28 02:31:00,15.4,3.9,29.91,North,0,0.0,-999.0,59,0.00,,,-99.99,,2013-01-28 11:31:00,
2013-01-28 02:36:00,15.2,4.1,29.91,North,0,0.0,-999.0,60,0.00,,,-99.99,,2013-01-28 11:36:00,
2013-01-28 02:41:00,15.3,4.0,29.91,North,0,0.0,-999.0,60,0.00,,,-99.99,,2013-01-28 11:41:00,
2013-01-28 02:46:00,15.4,3.9,29.91,North,0,0.0,-999.0,59,0.00,,,-99.99,,2013-01-28 11:46:00,
2013-01-28 02:51:00,15.2,3.5,29.91,North,0,0.0,-999.0,59,0.00,,,-99.99,,2013-01-28 11:51:00,
2013-01-28 02:56:00,15.4,4.3,29.91,North,0,0.0,-999.0,60,0.00,,,-99.99,,2013-01-28 11:56:00,
2013-01-28 03:01:00,15.5,5.1,29.90,North,0,0.0,-999.0,62,0.00,,,-99.99,,2013-01-28 12:01:00,
2013-01-28 03:06:00,15.6,5.0,29.90,North,0,0.0,-999.0,62,0.00,,,-99.99,,2013-01-28 12:06:00,
2013-01-28 03:11:00,15.8,4.6,29.90,North,0,0.0,-999.0,60,0.00,,,-99.99,,2013-01-28 12:11:00,
2013-01-28 03:16:00,15.8,4.0,29.90,North,0,0.0,-999.0,59,0.00,,,-99.99,,2013-01-28 12:16:00,
2013-01-28 03:21:00,15.6,4.2,29.90,North,0,0.0,-999.0,60,0.00,,,-99.99,,2013-01-28 12:21:00,
2013-01-28 03:26:00,15.6,4.0,29.90,North,0,0.0,-999.0,59,0.00,,,-99.99,,2013-01-28 12:26:00,
2013-01-28 03:31:00,15.7,4.6,29.90,North,0,0.0,-999.0,60,0.00,,,-99.99,,2013-01-28 12:31:00,
2013-01-28 03:36:00,15.7,5.4,29.90,North,0,0.0,-999.0,63,0.00,,,-99.99,,2013-01-28 12:36:00,
2013-01-28 03:41:00,15.8,5.3,29.90,North,0,0.0,-999.0,62,0.00,,,-99.99,,2013-01-28 12:41:00,
2013-01-28 03:46:00,15.8,5.6,29.90,North,0,0.0,-999.0,63,0.00,,,-99.99,,2013-01-28 12:46:00,
2013-01-28 03:51:00,15.4,5.0,29.90,North,0,0.0,-999.0,62,0.00,,,-99.99,,2013-01-28 12:51:00,
2013-01-28 03:56:00,15.6,5.2,29.90,North,0,0.0,-999.0,62,0.00,,,-99.99,,2013-01-28 12:56:00,
2013-01-28 04:01:00,15.7,5.3,29.88,North,0,0.0,-999.0,62,0.00,,,-99.99,,2013-01-28 13:01:00,
2013-01-28 04:06:00,15.9,4.9,29.88,North,0,0.0,-999.0,61,0.00,,,-99.99,,2013-01-28 13:06:00,
2013-01-28 04:11:00,16.0,5.2,29.88,North,0,0.0,-999.0,61,0.00,,,-99.99,,2013-01-28 13:11:00,
2013-01-28 04:16:00,16.0,5.8,29.88,North,0,0.0,-999.0,63,0.00,,,-99.99,,2013-01-28 13:16:00,
2013-01-28 04:21:00,15.8,5.5,29.88,North,0,0.0,-999.0,63,0.00,,,-99.99,,2013-01-28 13:21:00,
2013-01-28 04:26:00,16.2,6.9,29.88,North,0,0.0,-999.0,66,0.00,,,-99.99,,2013-01-28 13:26:00,
2013-01-28 04:31:00,16.1,6.5,29.88,North,0,0.0,-999.0,65,0.00,,,-99.99,,2013-01-28 13:31:00,
2013-01-28 04:36:00,16.4,6.8,29.88,North,0,0.0,-999.0,65,0.00,,,-99.99,,2013-01-28 13:36:00,
2013-01-28 04:41:00,16.7,7.9,29.88,North,0,0.0,-999.0,67,0.00,,,-99.99,,2013-01-28 13:41:00,
2013-01-28 04:46:00,16.8,7.9,29.88,North,0,0.0,-999.0,67,0.00,,,-99.99,,2013-01-28 13:46:00,
2013-01-28 04:51:00,16.5,7.7,29.88,North,0,0.0,-999.0,67,0.00,,,-99.99,,2013-01-28 13:51:00,
2013-01-28 04:56:00,16.4,8.3,29.88,North,0,0.0,-999.0,69,0.00,,,-99.99,,2013-01-28 13:56:00,
2013-01-28 05:01:00,16.3,8.7,29.88,North,0,0.0,-999.0,71,0.00,,,-99.99,,2013-01-28 14:01:00,
2013-01-28 05:06:00,16.6,9.1,29.88,North,0,0.0,-999.0,71,0.00,,,-99.99,,2013-01-28 14:06:00,
2013-01-28 05:11:00,16.3,8.9,29.88,North,0,0.0,-999.0,72,0.00,,,-99.99,,2013-01-28 14:11:00,
2013-01-28 05:16:00,16.1,8.9,29.88,North,0,0.0,-999.0,72,0.00,,,-99.99,,2013-01-28 14:16:00,
2013-01-28 05:21:00,16.3,9.8,29.88,North,0,0.0,-999.0,74,0.00,,,-99.99,,2013-01-28 14:21:00,
2013-01-28 05:26:00,16.2,10.0,29.88,North,0,0.0,-999.0,76,0.00,,,-99.99,,2013-01-28 14:26:00,
2013-01-28 05:31:00,16.2,10.4,29.88,North,0,0.0,-999.0,77,0.00,,,-99.99,,2013-01-28 14:31:00,
2013-01-28 05:36:00,16.1,10.6,29.88,North,0,0.0,-999.0,78,0.00,,,-99.99,,2013-01-28 14:36:00,
2013-01-28 05:41:00,16.0,11.0,29.88,North,0,0.0,-999.0,80,0.00,,,-99.99,,2013-01-28 14:41:00,
2013-01-28 05:46:00,16.0,11.5,29.88,North,0,0.0,-999.0,81,0.00,,,-99.99,,2013-01-28 14:46:00,
2013-01-28 05:51:00,15.9,11.9,29.88,North,0,0.0,-999.0,83,0.00,,,-99.99,,2013-01-28 14:51:00,
2013-01-28 05:56:00,15.8,11.9,29.88,North,0,0.0,-999.0,84,0.00,,,-99.99,,2013-01-28 14:56:00,
2013-01-28 06:01:00,15.9,12.5,29.86,North,0,0.0,-999.0,86,0.00,,,-99.99,,2013-01-28 15:01:00,
2013-01-28 06:06:00,16.0,12.9,29.86,North,0,0.0,-999.0,87,0.00,,,-99.99,,2013-01-28 15:06:00,
2013-01-28 06:11:00,16.0,13.1,29.86,North,0,0.0,-999.0,87,0.00,,,-99.99,,2013-01-28 15:11:00,
2013-01-28 06:16:00,16.0,13.1,29.86,North,0,0.0,-999.0,87,0.00,,,-99.99,,2013-01-28 15:16:00,
2013-01-28 06:21:00,15.9,12.9,29.86,North,0,0.0,-999.0,87,0.00,,,-99.99,,2013-01-28 15:21:00,
2013-01-28 06:26:00,16.2,13.4,29.86,North,0,0.0,-999.0,88,0.00,,,-99.99,,2013-01-28 15:26:00,
2013-01-28 06:31:00,16.0,13.2,29.86,North,0,0.0,-999.0,88,0.00,,,-99.99,,2013-01-28 15:31:00,
2013-01-28 06:36:00,16.0,13.2,29.86,North,0,0.0,-999.0,88,0.00,,,-99.99,,2013-01-28 15:36:00,
2013-01-28 06:41:00,15.9,13.0,29.86,North,0,0.0,-999.0,88,0.00,,,-99.99,,2013-01-28 15:41:00,
2013-01-28 06:46:00,15.8,13.0,29.86,North,0,0.0,-999.0,88,0.00,,,-99.99,,2013-01-28 15:46:00,
2013-01-28 06:51:00,15.9,13.3,29.86,North,0,0.0,-999.0,89,0.00,,,-99.99,,2013-01-28 15:51:00,
2013-01-28 06:56:00,15.8,13.2,29.86,North,0,0.0,-999.0,89,0.00,,,-99.99,,2013-01-28 15:56:00,
2013-01-28 07:01:00,15.8,13.4,29.84,North,0,0.0,-999.0,89,0.00,,,-99.99,,2013-01-28 16:01:00,
2013-01-28 07:06:00,15.9,13.5,29.84,North,0,0.0,-999.0,90,0.00,,,-99.99,,2013-01-28 16:06:00,
2013-01-28 07:11:00,15.8,13.5,29.84,North,0,0.0,-999.0,90,0.00,,,-99.99,,2013-01-28 16:11:00,
2013-01-28 07:16:00,15.9,13.6,29.84,North,0,0.0,-999.0,90,0.00,,,-99.99,,2013-01-28 16:16:00,
2013-01-28 07:21:00,16.0,13.8,29.84,North,0,0.0,-999.0,90,0.00,,,-99.99,,2013-01-28 16:21:00,
2013-01-28 07:26:00,16.1,14.0,29.84,North,0,0.0,-999.0,91,0.00,,,-99.99,,2013-01-28 16:26:00,
2013-01-28 07:31:00,16.0,13.8,29.84,North,0,0.0,-999.0,90,0.00,,,-99.99,,2013-01-28 16:31:00,
2013-01-28 07:36:00,16.2,14.0,29.84,North,0,0.0,-999.0,90,0.00,,,-99.99,,2013-01-28 16:36:00,
2013-01-28 07:41:00,16.0,13.9,29.84,North,0,0.0,-999.0,90,0.00,,,-99.99,,2013-01-28 16:41:00,
2013-01-28 07:46:00,16.2,14.2,29.84,North,0,0.0,-999.0,91,0.00,,,-99.99,,2013-01-28 16:46:00,
2013-01-28 07:51:00,16.5,14.5,29.84,North,0,0.0,-999.0,91,0.00,,,-99.99,,2013-01-28 16:51:00,
2013-01-28 07:56:00,17.0,15.1,29.84,North,0,0.0,-999.0,92,0.00,,,-99.99,,2013-01-28 16:56:00,
2013-01-28 08:01:00,17.2,15.3,29.83,North,0,0.0,-999.0,92,0.00,,,-99.99,,2013-01-28 17:01:00,
2013-01-28 08:06:00,17.3,15.4,29.83,North,0,0.0,-999.0,92,0.00,,,-99.99,,2013-01-28 17:06:00,
2013-01-28 08:11:00,18.4,17.0,29.83,North,0,0.0,-999.0,94,0.00,,,-99.99,,2013-01-28 17:11:00,
2013-01-28 08:16:00,19.1,17.2,29.83,North,0,0.0,-999.0,92,0.00,,,-99.99,,2013-01-28 17:16:00,
2013-01-28 08:21:00,19.8,18.1,29.83,North,0,0.0,-999.0,93,0.00,,,-99.99,,2013-01-28 17:21:00,
2013-01-28 08:26:00,20.6,18.7,29.83,North,0,0.0,-999.0,92,0.00,,,-99.99,,2013-01-28 17:26:00,
2013-01-28 08:31:00,21.0,19.0,29.83,North,0,0.0,-999.0,92,0.00,,,-99.99,,2013-01-28 17:31:00,
2013-01-28 08:36:00,21.2,19.3,29.83,North,0,0.0,-999.0,92,0.00,,,-99.99,,2013-01-28 17:36:00,
2013-01-28 08:41:00,20.8,18.0,29.83,North,0,0.0,-999.0,88,0.00,,,-99.99,,2013-01-28 17:41:00,
2013-01-28 08:46:00,21.0,18.5,29.83,North,0,0.0,-999.0,89,0.00,,,-99.99,,2013-01-28 17:46:00,
2013-01-28 08:51:00,21.4,19.2,29.83,North,0,0.0,-999.0,91,0.00,,,-99.99,,2013-01-28 17:51:00,
2013-01-28 08:56:00,21.4,19.2,29.83,North,0,0.0,-999.0,91,0.00,,,-99.99,,2013-01-28 17:56:00,
2013-01-28 09:01:00,21.3,19.1,29.81,North,0,0.0,-999.0,91,0.00,,,-99.99,,2013-01-28 18:01:00,
2013-01-28 09:06:00,21.5,19.5,29.81,North,0,0.0,-999.0,91,0.00,,,-99.99,,2013-01-28 18:06:00,
2013-01-28 09:11:00,21.8,19.9,29.81,North,0,0.0,-999.0,92,0.00,,,-99.99,,2013-01-28 18:11:00,
2013-01-28 09:16:00,22.1,20.3,29.81,North,0,0.0,-999.0,92,0.00,,,-99.99,,2013-01-28 18:16:00,
2013-01-28 09:21:00,22.2,20.5,29.81,North,0,0.0,-999.0,93,0.00,,,-99.99,,2013-01-28 18:21:00,
2013-01-28 09:26:00,22.3,20.6,29.81,North,0,0.0,-999.0,93,0.00,,,-99.99,,2013-01-28 18:26:00,
2013-01-28 09:31:00,22.8,21.2,29.81,North,0,0.0,-999.0,93,0.00,,,-99.99,,2013-01-28 18:31:00,
2013-01-28 09:36:00,22.9,21.3,29.81,North,0,0.0,-999.0,93,0.00,,,-99.99,,2013-01-28 18:36:00,
2013-01-28 09:41:00,22.8,21.2,29.81,North,0,0.0,-999.0,93,0.00,,,-99.99,,2013-01-28 18:41:00,
2013-01-28 09:46:00,23.2,21.8,29.81,North,0,0.0,-999.0,94,0.00,,,-99.99,,2013-01-28 18:46:00,
2013-01-28 09:51:00,23.4,22.0,29.81,North,0,0.0,-999.0,94,0.00,,,-99.99,,2013-01-28 18:51:00,
2013-01-28 09:56:00,23.6,22.2,29.81,North,0,0.0,-999.0,94,0.00,,,-99.99,,2013-01-28 18:56:00,
2013-01-28 10:01:00,23.5,21.9,29.78,North,0,0.0,-999.0,93,0.00,,,-99.99,,2013-01-28 19:01:00,
2013-01-28 10:06:00,23.7,22.0,29.78,North,0,0.0,-999.0,92,0.00,,,-99.99,,2013-01-28 19:06:00,
2013-01-28 10:11:00,23.8,22.1,29.78,North,0,0.0,-999.0,92,0.00,,,-99.99,,2013-01-28 19:11:00,
2013-01-28 10:16:00,23.8,22.0,29.78,North,0,0.0,-999.0,92,0.00,,,-99.99,,2013-01-28 19:16:00,
2013-01-28 10:21:00,24.1,22.7,29.78,North,0,0.0,-999.0,94,0.00,,,-99.99,,2013-01-28 19:21:00,
2013-01-28 10:26:00,23.8,22.4,29.78,North,0,0.0,-999.0,94,0.00,,,-99.99,,2013-01-28 19:26:00,
2013-01-28 10:31:00,24.0,22.7,29.78,North,0,0.0,-999.0,94,0.00,,,-99.99,,2013-01-28 19:31:00,
2013-01-28 10:36:00,24.0,22.6,29.78,North,0,0.0,-999.0,94,0.00,,,-99.99,,2013-01-28 19:36:00,
2013-01-28 10:41:00,23.8,22.4,29.78,North,0,0.0,-999.0,94,0.00,,,-99.99,,2013-01-28 19:41:00,
2013-01-28 10:46:00,24.0,22.6,29.78,North,0,0.0,-999.0,94,0.00,,,-99.99,,2013-01-28 19:46:00,
2013-01-28 10:51:00,24.0,22.5,29.78,North,0,0.0,-999.0,94,0.00,,,-99.99,,2013-01-28 19:51:00,
2013-01-28 10:56:00,24.0,22.5,29.78,North,0,0.0,-999.0,94,0.00,,,-99.99,,2013-01-28 19:56:00,
2013-01-28 11:01:00,24.3,23.1,29.77,North,0,0.0,-999.0,94,0.00,,,-99.99,,2013-01-28 20:01:00,
2013-01-28 11:06:00,23.8,22.5,29.77,North,0,0.0,-999.0,94,0.00,,,-99.99,,2013-01-28 20:06:00,
2013-01-28 11:11:00,23.9,22.5,29.77,North,0,0.0,-999.0,94,0.00,,,-99.99,,2013-01-28 20:11:00,
2013-01-28 11:16:00,24.1,22.9,29.77,North,0,0.0,-999.0,95,0.00,,,-99.99,,2013-01-28 20:16:00,
2013-01-28 11:21:00,24.1,23.0,29.77,North,0,0.0,-999.0,95,0.00,,,-99.99,,2013-01-28 20:21:00,
2013-01-28 11:26:00,24.0,22.8,29.77,North,0,0.0,-999.0,95,0.00,,,-99.99,,2013-01-28 20:26:00,
2013-01-28 11:31:00,24.0,22.7,29.77,North,0,0.0,-999.0,94,0.00,,,-99.99,,2013-01-28 20:31:00,
2013-01-28 11:36:00,24.0,22.8,29.77,North,0,0.0,-999.0,95,0.00,,,-99.99,,2013-01-28 20:36:00,
2013-01-28 11:41:00,24.2,23.2,29.77,North,0,0.0,-999.0,95,0.00,,,-99.99,,2013-01-28 20:41:00,
2013-01-28 11:46:00,24.0,22.9,29.77,North,0,0.0,-999.0,95,0.00,,,-99.99,,2013-01-28 20:46:00,
2013-01-28 11:51:00,24.3,23.3,29.77,North,0,0.0,-999.0,96,0.00,,,-99.99,,2013-01-28 20:51:00,
2013-01-28 11:56:00,24.3,23.4,29.77,North,0,0.0,-999.0,96,0.00,,,-99.99,,2013-01-28 20:56:00,
2013-01-28 12:01:00,24.3,23.3,29.72,North,0,0.0,-999.0,95,0.00,,,-99.99,,2013-01-28 21:01:00,
2013-01-28 12:06:00,24.7,23.8,29.72,North,0,0.0,-999.0,96,0.00,,,-99.99,,2013-01-28 21:06:00,
2013-01-28 12:11:00,24.5,23.6,29.72,North,0,0.0,-999.0,96,0.00,,,-99.99,,2013-01-28 21:11:00,
2013-01-28 12:16:00,24.7,23.8,29.72,North,0,0.0,-999.0,96,0.00,,,-99.99,,2013-01-28 21:16:00,
2013-01-28 12:21:00,24.8,23.9,29.72,North,0,0.0,-999.0,96,0.00,,,-99.99,,2013-01-28 21:21:00,
2013-01-28 12:26:00,25.3,24.5,29.72,North,0,0.0,-999.0,96,0.00,,,-99.99,,2013-01-28 21:26:00,
2013-01-28 12:31:00,25.4,24.6,29.72,North,0,0.0,-999.0,96,0.00,,,-99.99,,2013-01-28 21:31:00,
2013-01-28 12:36:00,25.4,24.5,29.72,North,0,0.0,-999.0,96,0.00,,,-99.99,,2013-01-28 21:36:00,
2013-01-28 12:41:00,25.3,24.3,29.72,North,0,0.0,-999.0,96,0.00,,,-99.99,,2013-01-28 21:41:00,
2013-01-28 12:46:00,25.6,24.6,29.72,North,0,0.0,-999.0,96,0.00,,,-99.99,,2013-01-28 21:46:00,
2013-01-28 12:51:00,25.8,25.0,29.72,North,0,0.0,-999.0,96,0.00,,,-99.99,,2013-01-28 21:51:00,
2013-01-28 12:56:00,26.0,25.1,29.72,North,0,0.0,-999.0,96,0.00,,,-99.99,,2013-01-28 21:56:00,
2013-01-28 13:01:00,25.8,25.0,29.69,North,0,0.0,-999.0,96,0.00,,,-99.99,,2013-01-28 22:01:00,
2013-01-28 13:06:00,25.7,24.7,29.69,North,0,0.0,-999.0,96,0.00,,,-99.99,,2013-01-28 22:06:00,
2013-01-28 13:11:00,25.7,24.7,29.69,North,0,0.0,-999.0,96,0.00,,,-99.99,,2013-01-28 22:11:00,
2013-01-28 13:16:00,25.7,24.7,29.69,North,0,0.0,-999.0,96,0.00,,,-99.99,,2013-01-28 22:16:00,
2013-01-28 13:21:00,25.9,25.1,29.69,North,0,0.0,-999.0,96,0.00,,,-99.99,,2013-01-28 22:21:00,
2013-01-28 13:26:00,26.2,25.3,29.69,North,0,0.0,-999.0,96,0.00,,,-99.99,,2013-01-28 22:26:00,
2013-01-28 13:31:00,25.9,25.0,29.69,North,0,0.0,-999.0,96,0.00,,,-99.99,,2013-01-28 22:31:00,
2013-01-28 13:36:00,25.7,24.8,29.69,North,0,0.0,-999.0,96,0.00,,,-99.99,,2013-01-28 22:36:00,
2013-01-28 13:41:00,25.6,24.6,29.69,North,0,0.0,-999.0,96,0.00,,,-99.99,,2013-01-28 22:41:00,
2013-01-28 13:46:00,25.6,24.7,29.69,North,0,0.0,-999.0,96,0.00,,,-99.99,,2013-01-28 22:46:00,
2013-01-28 13:51:00,25.5,24.6,29.69,North,0,0.0,-999.0,96,0.00,,,-99.99,,2013-01-28 22:51:00,
2013-01-28 13:56:00,25.2,24.2,29.69,North,0,0.0,-999.0,95,0.00,,,-99.99,,2013-01-28 22:56:00,
2013-01-28 14:01:00,25.2,24.2,29.67,North,0,0.0,-999.0,96,0.00,,,-99.99,,2013-01-28 23:01:00,
2013-01-28 14:06:00,25.3,24.5,29.67,North,0,0.0,-999.0,96,0.00,,,-99.99,,2013-01-28 23:06:00,
2013-01-28 14:11:00,25.9,25.1,29.67,North,0,0.0,-999.0,97,0.00,,,-99.99,,2013-01-28 23:11:00,
2013-01-28 14:16:00,25.7,24.8,29.67,North,0,0.0,-999.0,96,0.00,,,-99.99,,2013-01-28 23:16:00,
2013-01-28 14:21:00,25.7,25.0,29.67,North,0,0.0,-999.0,96,0.00,,,-99.99,,2013-01-28 23:21:00,
2013-01-28 14:26:00,25.9,25.2,29.67,North,0,0.0,-999.0,97,0.00,,,-99.99,,2013-01-28 23:26:00,
2013-01-28 14:31:00,26.2,25.6,29.67,North,0,0.0,-999.0,97,0.00,,,-99.99,,2013-01-28 23:31:00,
2013-01-28 14:36:00,26.2,25.5,29.67,North,0,0.0,-999.0,97,0.00,,,-99.99,,2013-01-28 23:36:00,
2013-01-28 14:41:00,26.5,25.8,29.67,North,0,0.0,-999.0,97,0.00,,,-99.99,,2013-01-28 23:41:00,
2013-01-28 14:46:00,26.4,25.7,29.67,North,0,0.0,-999.0,97,0.00,,,-99.99,,2013-01-28 23:46:00,
2013-01-28 14:51:00,26.1,25.4,29.67,North,0,0.0,-999.0,97,0.00,,,-99.99,,2013-01-28 23:51:00,
2013-01-28 14:56:00,26.2,25.5,29.67,North,0,0.0,-999.0,97,0.00,,,-99.99,,2013-01-28 23:56:00,
2013-01-28 15:01:00,26.6,26.0,29.63,North,0,0.0,-999.0,97,0.00,,,-99.99,,2013-01-29 00:01:00,
2013-01-28 15:06:00,26.4,25.6,29.63,North,0,0.0,-999.0,96,0.00,,,-99.99,,2013-01-29 00:06:00,
2013-01-28 15:11:00,26.4,25.6,29.63,North,0,0.0,-999.0,96,0.00,,,-99.99,,2013-01-29 00:11:00,
2013-01-28 15:16:00,26.4,25.8,29.63,North,0,0.0,-999.0,97,0.00,,,-99.99,,2013-01-29 00:16:00,
2013-01-28 15:21:00,26.8,26.1,29.63,North,0,0.0,-999.0,97,0.00,,,-99.99,,2013-01-29 00:21:00,
2013-01-28 15:26:00,27.2,26.6,29.63,North,0,0.0,-999.0,97,0.00,,,-99.99,,2013-01-29 00:26:00,
2013-01-28 15:31:00,26.9,26.1,29.63,North,0,0.0,-999.0,97,0.00,,,-99.99,,2013-01-29 00:31:00,
2013-01-28 15:36:00,26.7,26.0,29.63,North,0,0.0,-999.0,97,0.00,,,-99.99,,2013-01-29 00:36:00,
2013-01-28 15:41:00,26.9,26.2,29.63,North,0,0.0,-999.0,97,0.00,,,-99.99,,2013-01-29 00:41:00,
2013-01-28 15:46:00,26.4,25.6,29.63,North,0,0.0,-999.0,96,0.00,,,-99.99,,2013-01-29 00:46:00,
2013-01-28 15:51:00,26.0,25.2,29.63,North,0,0.0,-999.0,96,0.00,,,-99.99,,2013-01-29 00:51:00,
2013-01-28 15:56:00,26.2,25.6,29.63,North,0,0.0,-999.0,97,0.00,,,-99.99,,2013-01-29 00:56:00,
2013-01-28 16:01:00,26.4,25.7,29.62,North,0,0.0,-999.0,97,0.00,,,-99.99,,2013-01-29 01:01:00,
2013-01-28 16:06:00,26.2,25.5,29.62,North,0,0.0,-999.0,97,0.00,,,-99.99,,2013-01-29 01:06:00,
2013-01-28 16:11:00,26.4,25.6,29.62,North,0,0.0,-999.0,97,0.00,,,-99.99,,2013-01-29 01:11:00,
2013-01-28 16:16:00,26.7,26.0,29.62,North,0,0.0,-999.0,97,0.00,,,-99.99,,2013-01-29 01:16:00,
2013-01-28 16:21:00,27.0,26.4,29.62,North,0,0.0,-999.0,97,0.00,,,-99.99,,2013-01-29 01:21:00,
2013-01-28 16:26:00,26.9,26.1,29.62,North,0,0.0,-999.0,97,0.00,,,-99.99,,2013-01-29 01:26:00,
2013-01-28 16:31:00,27.2,26.7,29.62,North,0,0.0,-999.0,97,0.00,,,-99.99,,2013-01-29 01:31:00,
2013-01-28 16:36:00,27.0,26.3,29.62,North,0,0.0,-999.0,97,0.00,,,-99.99,,2013-01-29 01:36:00,
2013-01-28 16:41:00,27.2,26.6,29.62,North,0,0.0,-999.0,97,0.00,,,-99.99,,2013-01-29 01:41:00,
2013-01-28 16:46:00,26.8,26.1,29.62,North,0,0.0,-999.0,97,0.00,,,-99.99,,2013-01-29 01:46:00,
2013-01-28 16:51:00,27.3,26.9,29.62,North,0,0.0,-999.0,98,0.00,,,-99.99,,2013-01-29 01:51:00,
2013-01-28 16:56:00,27.3,26.7,29.62,North,0,0.0,-999.0,97,0.00,,,-99.99,,2013-01-29 01:56:00,
2013-01-28 17:01:00,27.6,27.1,29.57,North,0,0.0,-999.0,97,0.00,,,-99.99,,2013-01-29 02:01:00,
2013-01-28 17:06:00,27.8,27.3,29.57,North,0,0.0,-999.0,97,0.00,,,-99.99,,2013-01-29 02:06:00,
2013-01-28 17:11:00,27.8,27.2,29.57,North,0,0.0,-999.0,97,0.00,,,-99.99,,2013-01-29 02:11:00,
2013-01-28 17:16:00,28.2,27.7,29.57,North,0,0.0,-999.0,97,0.00,,,-99.99,,2013-01-29 02:16:00,
2013-01-28 17:21:00,28.1,27.6,29.57,North,0,0.0,-999.0,97,0.00,,,-99.99,,2013-01-29 02:21:00,
2013-01-28 17:26:00,28.1,27.6,29.57,North,0,0.0,-999.0,97,0.00,,,-99.99,,2013-01-29 02:26:00,
2013-01-28 17:31:00,28.4,27.9,29.57,North,0,0.0,-999.0,97,0.00,,,-99.99,,2013-01-29 02:31:00,
2013-01-28 17:36:00,28.5,28.0,29.57,North,0,0.0,-999.0,97,0.00,,,-99.99,,2013-01-29 02:36:00,
2013-01-28 17:41:00,28.4,28.0,29.57,North,0,0.0,-999.0,98,0.00,,,-99.99,,2013-01-29 02:41:00,
2013-01-28 17:46:00,28.5,28.0,29.57,North,0,0.0,-999.0,98,0.00,,,-99.99,,2013-01-29 02:46:00,
2013-01-28 17:51:00,28.8,28.3,29.57,North,0,0.0,-999.0,98,0.00,,,-99.99,,2013-01-29 02:51:00,
2013-01-28 17:56:00,28.8,28.3,29.57,North,0,0.0,-999.0,98,0.00,,,-99.99,,2013-01-29 02:56:00,
2013-01-28 18:01:00,28.4,27.8,29.54,North,0,0.0,-999.0,97,0.00,,,-99.99,,2013-01-29 03:01:00,
2013-01-28 18:06:00,28.6,28.1,29.54,North,0,0.0,-999.0,97,0.00,,,-99.99,,2013-01-29 03:06:00,
2013-01-28 18:11:00,28.3,27.7,29.54,North,0,0.0,-999.0,97,0.00,,,-99.99,,2013-01-29 03:11:00,
2013-01-28 18:16:00,28.4,27.9,29.54,North,0,0.0,-999.0,97,0.00,,,-99.99,,2013-01-29 03:16:00,
2013-01-28 18:21:00,28.3,27.7,29.54,North,0,0.0,-999.0,97,0.00,,,-99.99,,2013-01-29 03:21:00,
2013-01-28 18:26:00,28.6,28.0,29.54,North,0,0.0,-999.0,97,0.00,,,-99.99,,2013-01-29 03:26:00,
2013-01-28 18:31:00,28.8,28.3,29.54,North,0,0.0,-999.0,97,0.00,,,-99.99,,2013-01-29 03:31:00,
2013-01-28 18:36:00,28.7,28.1,29.54,North,0,0.0,-999.0,97,0.00,,,-99.99,,2013-01-29 03:36:00,
2013-01-28 18:41:00,28.8,28.3,29.54,North,0,0.0,-999.0,97,0.00,,,-99.99,,2013-01-29 03:41:00,
2013-01-28 18:46:00,28.9,28.4,29.54,North,0,0.0,-999.0,97,0.00,,,-99.99,,2013-01-29 03:46:00,
2013-01-28 18:51:00,28.9,28.4,29.54,North,0,0.0,-999.0,97,0.00,,,-99.99,,2013-01-29 03:51:00,
2013-01-28 18:56:00,29.2,28.7,29.54,North,0,0.0,-999.0,97,0.00,,,-99.99,,2013-01-29 03:56:00,
2013-01-28 19:01:00,29.1,28.5,29.50,North,0,0.0,-999.0,97,0.00,,,-99.99,,2013-01-29 04:01:00,
2013-01-28 19:06:00,29.0,28.5,29.50,North,0,0.0,-999.0,97,0.00,,,-99.99,,2013-01-29 04:06:00,
2013-01-28 19:11:00,29.2,28.6,29.50,North,0,0.0,-999.0,97,0.00,,,-99.99,,2013-01-29 04:11:00,
2013-01-28 19:16:00,29.0,28.5,29.50,North,0,0.0,-999.0,97,0.00,,,-99.99,,2013-01-29 04:16:00,
2013-01-28 19:21:00,29.4,28.8,29.50,North,0,0.0,-999.0,97,0.00,,,-99.99,,2013-01-29 04:21:00,
2013-01-28 19:26:00,29.5,29.1,29.50,North,0,0.0,-999.0,98,0.00,,,-99.99,,2013-01-29 04:26:00,
2013-01-28 19:31:00,29.7,29.1,29.50,North,0,0.0,-999.0,97,0.00,,,-99.99,,2013-01-29 04:31:00,
2013-01-28 19:36:00,29.7,29.2,29.50,North,0,0.0,-999.0,97,0.00,,,-99.99,,2013-01-29 04:36:00,
2013-01-28 19:41:00,29.9,29.4,29.50,North,0,0.0,-999.0,98,0.00,,,-99.99,,2013-01-29 04:41:00,
2013-01-28 19:46:00,29.8,29.3,29.50,North,0,0.0,-999.0,98,0.00,,,-99.99,,2013-01-29 04:46:00,
2013-01-28 19:51:00,29.8,29.3,29.50,North,0,0.0,-999.0,98,0.00,,,-99.99,,2013-01-29 04:51:00,
2013-01-28 19:56:00,30.0,29.6,29.50,North,0,0.0,-999.0,98,0.00,,,-99.99,,2013-01-29 04:56:00,
2013-01-28 20:01:00,30.0,29.6,29.45,North,0,0.0,-999.0,98,0.00,,,-99.99,,2013-01-29 05:01:00,
2013-01-28 20:02:00,30.0,29.5,29.45,North,0,0.0,-999.0,98,0.00,,,-99.99,,2013-01-29 05:02:00,
2013-01-28 20:07:00,30.1,29.7,29.45,North,0,0.0,-999.0,98,0.00,,,-99.99,,2013-01-29 05:07:00,
2013-01-28 20:12:00,30.2,29.7,29.45,North,0,0.0,-999.0,98,0.00,,,-99.99,,2013-01-29 05:12:00,
2013-01-28 20:17:00,30.2,29.8,29.45,North,0,0.0,-999.0,98,0.00,,,-99.99,,2013-01-29 05:17:00,
2013-01-28 20:22:00,30.4,30.0,29.45,North,0,0.0,-999.0,98,0.00,,,-99.99,,2013-01-29 05:22:00,
2013-01-28 20:27:00,30.3,30.0,29.45,North,0,0.0,-999.0,98,0.00,,,-99.99,,2013-01-29 05:27:00,
2013-01-28 20:32:00,30.5,30.1,29.45,North,0,0.0,-999.0,98,0.00,,,-99.99,,2013-01-29 05:32:00,
2013-01-28 20:37:00,30.4,30.0,29.45,North,0,0.0,-999.0,98,0.00,,,-99.99,,2013-01-29 05:37:00,
2013-01-28 20:42:00,30.4,30.0,29.45,North,0,0.0,-999.0,98,0.00,,,-99.99,,2013-01-29 05:42:00,
2013-01-28 20:46:00,30.5,30.1,29.45,North,0,0.0,-999.0,98,0.00,,,-99.99,,2013-01-29 05:46:00,
2013-01-28 20:51:00,30.5,30.1,29.45,North,0,0.0,-999.0,98,0.00,,,-99.99,,2013-01-29 05:51:00,
2013-01-28 20:56:00,30.6,30.3,29.45,North,0,0.0,-999.0,98,0.00,,,-99.99,,2013-01-29 05:56:00,
2013-01-28 21:01:00,30.9,30.5,29.43,North,0,0.0,-999.0,98,0.00,,,-99.99,,2013-01-29 06:01:00,
2013-01-28 21:06:00,31.1,30.7,29.43,North,0,0.0,-999.0,98,0.00,,,-99.99,,2013-01-29 06:06:00,
2013-01-28 21:11:00,30.7,30.3,29.43,North,0,0.0,-999.0,98,0.00,,,-99.99,,2013-01-29 06:11:00,
2013-01-28 21:16:00,30.7,30.4,29.43,North,0,0.0,-999.0,98,0.00,,,-99.99,,2013-01-29 06:16:00,
2013-01-28 21:21:00,30.8,30.4,29.43,North,0,0.0,-999.0,98,0.00,,,-99.99,,2013-01-29 06:21:00,
2013-01-28 21:26:00,30.8,30.4,29.43,North,0,0.0,-999.0,98,0.00,,,-99.99,,2013-01-29 06:26:00,
2013-01-28 21:31:00,30.8,30.5,29.43,North,0,0.0,-999.0,98,0.00,,,-99.99,,2013-01-29 06:31:00,
2013-01-28 21:36:00,30.9,30.6,29.43,North,0,0.0,-999.0,98,0.00,,,-99.99,,2013-01-29 06:36:00,
2013-01-28 21:41:00,31.0,30.6,29.43,North,0,0.0,-999.0,98,0.00,,,-99.99,,2013-01-29 06:41:00,
2013-01-28 21:46:00,31.0,30.7,29.43,North,0,0.0,-999.0,98,0.00,,,-99.99,,2013-01-29 06:46:00,
2013-01-28 21:51:00,30.9,30.6,29.43,North,0,0.0,-999.0,98,0.00,,,-99.99,,2013-01-29 06:51:00,
2013-01-28 21:56:00,31.1,30.8,29.43,North,0,0.0,-999.0,98,0.00,,,-99.99,,2013-01-29 06:56:00,
2013-01-28 22:01:00,31.1,30.8,29.40,North,0,0.0,-999.0,98,0.00,,,-99.99,,2013-01-29 07:01:00,
2013-01-28 22:06:00,31.1,30.8,29.40,North,0,0.0,-999.0,98,0.00,,,-99.99,,2013-01-29 07:06:00,
2013-01-28 22:11:00,31.2,30.9,29.40,North,0,0.0,-999.0,98,0.00,,,-99.99,,2013-01-29 07:11:00,
2013-01-28 22:16:00,31.2,30.9,29.40,North,0,0.0,-999.0,98,0.00,,,-99.99,,2013-01-29 07:16:00,
2013-01-28 22:21:00,31.3,30.9,29.40,North,0,0.0,-999.0,98,0.00,,,-99.99,,2013-01-29 07:21:00,
2013-01-28 22:26:00,31.3,31.0,29.40,North,0,0.0,-999.0,98,0.00,,,-99.99,,2013-01-29 07:26:00,
2013-01-28 22:31:00,31.3,31.0,29.40,North,0,0.0,-999.0,98,0.00,,,-99.99,,2013-01-29 07:31:00,
2013-01-28 22:36:00,31.3,31.0,29.40,North,0,0.0,-999.0,98,0.00,,,-99.99,,2013-01-29 07:36:00,
2013-01-28 22:41:00,31.3,31.0,29.40,North,0,0.0,-999.0,98,0.00,,,-99.99,,2013-01-29 07:41:00,
2013-01-28 22:46:00,31.5,31.2,29.40,North,0,0.0,-999.0,98,0.00,,,-99.99,,2013-01-29 07:46:00,
2013-01-28 22:51:00,31.5,31.2,29.40,North,0,0.0,-999.0,98,0.00,,,-99.99,,2013-01-29 07:51:00,
2013-01-28 22:56:00,31.5,31.2,29.40,North,0,0.0,-999.0,98,0.00,,,-99.99,,2013-01-29 07:56:00,
2013-01-28 23:01:00,31.5,31.2,29.37,North,0,0.0,-999.0,98,0.00,,,-99.99,,2013-01-29 08:01:00,
2013-01-28 23:06:00,31.6,31.4,29.37,North,0,0.0,-999.0,98,0.00,,,-99.99,,2013-01-29 08:06:00,
2013-01-28 23:11:00,31.6,31.4,29.37,North,0,0.0,-999.0,98,0.00,,,-99.99,,2013-01-29 08:11:00,
2013-01-28 23:16:00,31.6,31.3,29.37,North,0,0.0,-999.0,98,0.00,,,-99.99,,2013-01-29 08:16:00,
2013-01-28 23:21:00,31.6,31.3,29.37,North,0,0.0,-999.0,98,0.00,,,-99.99,,2013-01-29 08:21:00,
2013-01-28 23:26:00,31.7,31.4,29.37,North,0,0.0,-999.0,98,0.00,,,-99.99,,2013-01-29 08:26:00,
2013-01-28 23:31:00,31.6,31.4,29.37,North,0,0.0,-999.0,98,0.00,,,-99.99,,2013-01-29 08:31:00,
2013-01-28 23:36:00,31.8,31.6,29.37,North,0,0.0,-999.0,99,0.00,,,-99.99,,2013-01-29 08:36:00,
2013-01-28 23:41:00,31.8,31.5,29.37,North,0,0.0,-999.0,98,0.00,,,-99.99,,2013-01-29 08:41:00,
2013-01-28 23:46:00,31.8,31.5,29.37,North,0,0.0,-999.0,99,0.00,,,-99.99,,2013-01-29 08:46:00,
2013-01-28 23:51:00,31.8,31.5,29.37,North,0,0.0,-999.0,99,0.00,,,-99.99,,2013-01-29 08:51:00,
2013-01-28 23:56:00,31.8,31.6,29.37,North,0,0.0,-999.0,99,0.00,,,-99.99,,2013-01-29 08:56:00,